Pagrindinis puslapis
METAR-TAF:

METAR-TAF

Oro uostai :

Beaver Creek, Jukonas, Kanada

platuma: 62-25N, ilguma: 140-52W, Aukštis: 649 m

Dabartinis oras

Ataskaita buvo paskelbta 52 minutes, ne 20:00 UTC
Ramus vėjas
Temperatūra -6°C
Drėgmė 93%
Slėgis 1014 hPa
Matomumas: 12.9 km
Su prošvaistėmis ne aukštis 4500 ft
Apsiniaukę ne aukštis 7000 ft
sniegas

METAR: CYXQ 282000Z 00000KT 8SM -SN BKN045 OVC070 M06/M07 A2995 RMK SC6AS2 SLP194

Laikas: 13:52 (20:52 UTC)


TAF: trūkstamas

Orai ataskaitas ir orų prognozės (METAR, TAF).

turimą stotys yra geltonos ir raudonos taškus žemėlapyje.

Perkelti pele per norėdami pamatyti stoties vardą.

Tada spustelėkite, norėdami matyti oro stebėjimo ir prognozės.

Norėdami pakeisti žemėlapį: spustelėkite ant žalios mygtukų su juodo kryžiaus žemyn,; žalią mygtuką su brūkšneliu, jei norite nutolinti; arba žalių rodyklių gretimoms žemėlapius.


METAR-TAF: